sensor_id;sensor_type;location;lat;lon;timestamp;temperature;humidity
5258;DHT22;2651;51.594;9.928;2024-01-15T00:00:46;1.40;1.00
5258;DHT22;2651;51.594;9.928;2024-01-15T00:01:48;1.40;1.00
5258;DHT22;2651;51.594;9.928;2024-01-15T00:02:50;1.40;1.00
5258;DHT22;2651;51.594;9.928;2024-01-15T00:03:53;1.40;1.00
5258;DHT22;2651;51.594;9.928;2024-01-15T00:04:57;1.40;1.00
5258;DHT22;2651;51.594;9.928;2024-01-15T00:05:59;1.40;1.00
5258;DHT22;2651;51.594;9.928;2024-01-15T00:07:02;1.40;1.00
5258;DHT22;2651;51.594;9.928;2024-01-15T00:08:04;1.40;1.00
5258;DHT22;2651;51.594;9.928;2024-01-15T00:09:08;1.40;1.00
5258;DHT22;2651;51.594;9.928;2024-01-15T00:10:12;1.40;1.00
5258;DHT22;2651;51.594;9.928;2024-01-15T00:11:14;1.40;1.00
5258;DHT22;2651;51.594;9.928;2024-01-15T00:12:15;1.40;1.00
5258;DHT22;2651;51.594;9.928;2024-01-15T00:13:17;1.40;1.00
5258;DHT22;2651;51.594;9.928;2024-01-15T00:14:19;1.40;1.00
5258;DHT22;2651;51.594;9.928;2024-01-15T00:15:22;1.40;1.00
5258;DHT22;2651;51.594;9.928;2024-01-15T00:16:24;1.40;1.00
5258;DHT22;2651;51.594;9.928;2024-01-15T00:17:28;1.40;1.00
5258;DHT22;2651;51.594;9.928;2024-01-15T00:18:29;1.40;1.00
5258;DHT22;2651;51.594;9.928;2024-01-15T00:19:31;1.40;1.00
5258;DHT22;2651;51.594;9.928;2024-01-15T00:20:34;1.40;1.00
5258;DHT22;2651;51.594;9.928;2024-01-15T00:21:36;1.40;1.00
5258;DHT22;2651;51.594;9.928;2024-01-15T00:22:37;1.40;1.00
5258;DHT22;2651;51.594;9.928;2024-01-15T00:23:43;1.40;1.00
5258;DHT22;2651;51.594;9.928;2024-01-15T00:24:46;1.40;1.00
5258;DHT22;2651;51.594;9.928;2024-01-15T00:25:48;1.40;1.00
5258;DHT22;2651;51.594;9.928;2024-01-15T00:26:49;1.40;1.00
5258;DHT22;2651;51.594;9.928;2024-01-15T00:27:51;1.40;1.00
5258;DHT22;2651;51.594;9.928;2024-01-15T00:28:53;1.40;1.00
5258;DHT22;2651;51.594;9.928;2024-01-15T00:29:55;1.40;1.00
5258;DHT22;2651;51.594;9.928;2024-01-15T00:31:04;1.40;1.00
5258;DHT22;2651;51.594;9.928;2024-01-15T00:32:06;1.40;1.00
5258;DHT22;2651;51.594;9.928;2024-01-15T00:33:08;1.40;1.00
5258;DHT22;2651;51.594;9.928;2024-01-15T00:34:10;1.40;1.00
5258;DHT22;2651;51.594;9.928;2024-01-15T00:35:12;1.40;1.00
5258;DHT22;2651;51.594;9.928;2024-01-15T00:36:14;1.50;1.00
5258;DHT22;2651;51.594;9.928;2024-01-15T00:37:16;1.40;1.00
5258;DHT22;2651;51.594;9.928;2024-01-15T00:38:18;1.50;1.00
5258;DHT22;2651;51.594;9.928;2024-01-15T00:39:20;1.50;1.00
5258;DHT22;2651;51.594;9.928;2024-01-15T00:40:22;1.50;1.00
5258;DHT22;2651;51.594;9.928;2024-01-15T00:41:31;1.50;1.00
5258;DHT22;2651;51.594;9.928;2024-01-15T00:42:33;1.50;1.00
5258;DHT22;2651;51.594;9.928;2024-01-15T00:43:41;1.50;1.00
5258;DHT22;2651;51.594;9.928;2024-01-15T00:44:42;1.50;1.00
5258;DHT22;2651;51.594;9.928;2024-01-15T00:45:44;1.60;1.00
5258;DHT22;2651;51.594;9.928;2024-01-15T00:46:49;1.60;1.00
5258;DHT22;2651;51.594;9.928;2024-01-15T00:47:51;1.60;1.00
5258;DHT22;2651;51.594;9.928;2024-01-15T00:48:55;1.60;1.00
5258;DHT22;2651;51.594;9.928;2024-01-15T00:50:00;1.60;1.00
5258;DHT22;2651;51.594;9.928;2024-01-15T00:51:06;1.60;1.00
5258;DHT22;2651;51.594;9.928;2024-01-15T00:52:10;1.60;1.00
5258;DHT22;2651;51.594;9.928;2024-01-15T00:53:12;1.60;1.00
5258;DHT22;2651;51.594;9.928;2024-01-15T00:54:14;1.60;1.00
5258;DHT22;2651;51.594;9.928;2024-01-15T00:55:16;1.60;1.00
5258;DHT22;2651;51.594;9.928;2024-01-15T00:56:20;1.60;1.00
5258;DHT22;2651;51.594;9.928;2024-01-15T00:57:22;1.70;1.00
5258;DHT22;2651;51.594;9.928;2024-01-15T00:58:26;1.70;1.00
5258;DHT22;2651;51.594;9.928;2024-01-15T00:59:28;1.60;1.00
5258;DHT22;2651;51.594;9.928;2024-01-15T01:00:30;1.70;1.00
5258;DHT22;2651;51.594;9.928;2024-01-15T01:01:34;1.70;1.00
5258;DHT22;2651;51.594;9.928;2024-01-15T01:02:36;1.60;1.00
5258;DHT22;2651;51.594;9.928;2024-01-15T01:03:38;1.60;1.00
5258;DHT22;2651;51.594;9.928;2024-01-15T01:04:40;1.70;1.00
5258;DHT22;2651;51.594;9.928;2024-01-15T01:05:42;1.70;1.00
5258;DHT22;2651;51.594;9.928;2024-01-15T01:06:47;1.70;1.00
5258;DHT22;2651;51.594;9.928;2024-01-15T01:07:54;1.70;1.00
5258;DHT22;2651;51.594;9.928;2024-01-15T01:08:56;1.70;1.00
5258;DHT22;2651;51.594;9.928;2024-01-15T01:09:58;1.70;1.00
5258;DHT22;2651;51.594;9.928;2024-01-15T01:10:59;1.80;1.00
5258;DHT22;2651;51.594;9.928;2024-01-15T01:12:02;1.70;1.00
5258;DHT22;2651;51.594;9.928;2024-01-15T01:13:07;1.70;1.00
5258;DHT22;2651;51.594;9.928;2024-01-15T01:14:08;1.80;1.00
5258;DHT22;2651;51.594;9.928;2024-01-15T01:15:12;1.80;1.00
5258;DHT22;2651;51.594;9.928;2024-01-15T01:16:15;1.80;1.00
5258;DHT22;2651;51.594;9.928;2024-01-15T01:17:17;1.80;1.00
5258;DHT22;2651;51.594;9.928;2024-01-15T01:18:19;1.80;1.00
5258;DHT22;2651;51.594;9.928;2024-01-15T01:19:26;1.80;1.00
5258;DHT22;2651;51.594;9.928;2024-01-15T01:20:29;1.80;1.00
5258;DHT22;2651;51.594;9.928;2024-01-15T01:21:33;1.90;1.00
5258;DHT22;2651;51.594;9.928;2024-01-15T01:22:36;1.90;1.00
5258;DHT22;2651;51.594;9.928;2024-01-15T01:23:44;1.90;1.00
5258;DHT22;2651;51.594;9.928;2024-01-15T01:24:46;1.90;1.00
5258;DHT22;2651;51.594;9.928;2024-01-15T01:25:50;1.80;1.00
5258;DHT22;2651;51.594;9.928;2024-01-15T01:26:55;1.90;1.00
5258;DHT22;2651;51.594;9.928;2024-01-15T01:27:56;1.90;1.00
5258;DHT22;2651;51.594;9.928;2024-01-15T01:29:01;1.90;1.00
5258;DHT22;2651;51.594;9.928;2024-01-15T01:30:09;1.90;1.00
5258;DHT22;2651;51.594;9.928;2024-01-15T01:31:11;1.90;1.00
5258;DHT22;2651;51.594;9.928;2024-01-15T01:32:13;1.90;1.00
5258;DHT22;2651;51.594;9.928;2024-01-15T01:33:15;1.80;1.00
5258;DHT22;2651;51.594;9.928;2024-01-15T01:34:17;1.90;1.00
5258;DHT22;2651;51.594;9.928;2024-01-15T01:35:20;1.90;1.00
5258;DHT22;2651;51.594;9.928;2024-01-15T01:36:24;1.90;1.00
5258;DHT22;2651;51.594;9.928;2024-01-15T01:37:29;1.90;1.00
5258;DHT22;2651;51.594;9.928;2024-01-15T01:38:30;1.90;1.00
5258;DHT22;2651;51.594;9.928;2024-01-15T01:39:34;1.90;1.00
5258;DHT22;2651;51.594;9.928;2024-01-15T01:40:36;1.90;1.00
5258;DHT22;2651;51.594;9.928;2024-01-15T01:41:39;1.90;1.00
5258;DHT22;2651;51.594;9.928;2024-01-15T01:42:43;2.00;1.00
5258;DHT22;2651;51.594;9.928;2024-01-15T01:43:48;2.00;1.00
5258;DHT22;2651;51.594;9.928;2024-01-15T01:44:50;1.90;1.00
5258;DHT22;2651;51.594;9.928;2024-01-15T01:45:58;2.00;1.00
5258;DHT22;2651;51.594;9.928;2024-01-15T01:47:05;2.00;1.00
5258;DHT22;2651;51.594;9.928;2024-01-15T01:48:07;2.00;1.00
5258;DHT22;2651;51.594;9.928;2024-01-15T01:49:09;1.90;1.00
5258;DHT22;2651;51.594;9.928;2024-01-15T01:50:14;1.90;1.00
5258;DHT22;2651;51.594;9.928;2024-01-15T01:51:16;1.90;1.00
5258;DHT22;2651;51.594;9.928;2024-01-15T01:52:28;1.90;1.00
5258;DHT22;2651;51.594;9.928;2024-01-15T01:53:38;1.90;1.00
5258;DHT22;2651;51.594;9.928;2024-01-15T01:54:43;1.90;1.00
5258;DHT22;2651;51.594;9.928;2024-01-15T01:55:57;1.90;1.00
5258;DHT22;2651;51.594;9.928;2024-01-15T01:56:59;1.80;1.00
5258;DHT22;2651;51.594;9.928;2024-01-15T01:58:03;1.80;1.00
5258;DHT22;2651;51.594;9.928;2024-01-15T01:59:10;1.90;1.00
5258;DHT22;2651;51.594;9.928;2024-01-15T02:00:22;1.90;1.00
5258;DHT22;2651;51.594;9.928;2024-01-15T02:01:27;1.90;1.00
5258;DHT22;2651;51.594;9.928;2024-01-15T02:02:31;1.90;1.00
5258;DHT22;2651;51.594;9.928;2024-01-15T02:03:36;1.90;1.00
5258;DHT22;2651;51.594;9.928;2024-01-15T02:04:51;1.90;1.00
5258;DHT22;2651;51.594;9.928;2024-01-15T02:06:02;1.90;1.00
5258;DHT22;2651;51.594;9.928;2024-01-15T02:07:09;1.90;99.90
5258;DHT22;2651;51.594;9.928;2024-01-15T02:08:22;1.90;99.90
5258;DHT22;2651;51.594;9.928;2024-01-15T02:09:26;1.90;99.90
5258;DHT22;2651;51.594;9.928;2024-01-15T02:10:28;1.90;99.90
5258;DHT22;2651;51.594;9.928;2024-01-15T02:11:30;1.90;99.90
5258;DHT22;2651;51.594;9.928;2024-01-15T02:12:32;1.90;99.90
5258;DHT22;2651;51.594;9.928;2024-01-15T02:13:36;1.90;99.90
5258;DHT22;2651;51.594;9.928;2024-01-15T02:14:40;1.90;99.90
5258;DHT22;2651;51.594;9.928;2024-01-15T02:15:50;2.00;91.60
5258;DHT22;2651;51.594;9.928;2024-01-15T02:17:01;2.00;1.00
5258;DHT22;2651;51.594;9.928;2024-01-15T02:18:09;2.00;1.00
5258;DHT22;2651;51.594;9.928;2024-01-15T02:19:15;1.90;1.00
5258;DHT22;2651;51.594;9.928;2024-01-15T02:20:32;2.00;1.00
5258;DHT22;2651;51.594;9.928;2024-01-15T02:21:34;2.00;1.00
5258;DHT22;2651;51.594;9.928;2024-01-15T02:22:36;2.00;99.90
5258;DHT22;2651;51.594;9.928;2024-01-15T02:23:39;2.00;99.90
5258;DHT22;2651;51.594;9.928;2024-01-15T02:24:46;2.00;99.90
5258;DHT22;2651;51.594;9.928;2024-01-15T02:26:05;2.00;99.90
5258;DHT22;2651;51.594;9.928;2024-01-15T02:27:07;1.90;99.90
5258;DHT22;2651;51.594;9.928;2024-01-15T02:28:28;1.90;99.90
5258;DHT22;2651;51.594;9.928;2024-01-15T02:29:30;1.90;1.00
5258;DHT22;2651;51.594;9.928;2024-01-15T02:30:38;2.00;1.00
5258;DHT22;2651;51.594;9.928;2024-01-15T02:31:45;2.00;1.00
5258;DHT22;2651;51.594;9.928;2024-01-15T02:32:47;2.00;1.00
5258;DHT22;2651;51.594;9.928;2024-01-15T02:33:51;1.90;1.00
5258;DHT22;2651;51.594;9.928;2024-01-15T02:34:53;2.00;1.00
5258;DHT22;2651;51.594;9.928;2024-01-15T02:35:54;2.00;1.00
5258;DHT22;2651;51.594;9.928;2024-01-15T02:37:06;2.00;1.00
5258;DHT22;2651;51.594;9.928;2024-01-15T02:38:13;2.00;1.00
5258;DHT22;2651;51.594;9.928;2024-01-15T02:39:30;1.90;1.00
5258;DHT22;2651;51.594;9.928;2024-01-15T02:40:36;2.00;99.90
5258;DHT22;2651;51.594;9.928;2024-01-15T02:41:42;1.90;99.90
5258;DHT22;2651;51.594;9.928;2024-01-15T02:42:46;1.90;1.00
5258;DHT22;2651;51.594;9.928;2024-01-15T02:43:48;1.90;18.50
5258;DHT22;2651;51.594;9.928;2024-01-15T02:44:50;1.90;99.90
5258;DHT22;2651;51.594;9.928;2024-01-15T02:45:56;1.90;10.90
5258;DHT22;2651;51.594;9.928;2024-01-15T02:46:58;1.90;1.00
5258;DHT22;2651;51.594;9.928;2024-01-15T02:48:01;1.90;1.00
5258;DHT22;2651;51.594;9.928;2024-01-15T02:49:06;1.90;1.00
5258;DHT22;2651;51.594;9.928;2024-01-15T02:50:08;1.80;1.00
5258;DHT22;2651;51.594;9.928;2024-01-15T02:51:10;1.80;1.00
5258;DHT22;2651;51.594;9.928;2024-01-15T02:52:15;1.80;1.00
5258;DHT22;2651;51.594;9.928;2024-01-15T02:53:25;1.80;99.90
5258;DHT22;2651;51.594;9.928;2024-01-15T02:54:29;1.80;99.90
5258;DHT22;2651;51.594;9.928;2024-01-15T02:55:34;1.80;42.60
5258;DHT22;2651;51.594;9.928;2024-01-15T02:56:40;1.80;99.90
5258;DHT22;2651;51.594;9.928;2024-01-15T02:57:45;1.80;99.90
5258;DHT22;2651;51.594;9.928;2024-01-15T02:58:47;1.80;1.00
5258;DHT22;2651;51.594;9.928;2024-01-15T02:59:58;1.80;1.00
5258;DHT22;2651;51.594;9.928;2024-01-15T03:01:03;1.80;1.00
5258;DHT22;2651;51.594;9.928;2024-01-15T03:02:05;1.80;1.00
5258;DHT22;2651;51.594;9.928;2024-01-15T03:03:10;1.80;1.00
5258;DHT22;2651;51.594;9.928;2024-01-15T03:04:14;1.80;1.00
5258;DHT22;2651;51.594;9.928;2024-01-15T03:05:22;1.80;1.00
5258;DHT22;2651;51.594;9.928;2024-01-15T03:06:32;1.70;1.00
5258;DHT22;2651;51.594;9.928;2024-01-15T03:07:36;1.80;1.00
5258;DHT22;2651;51.594;9.928;2024-01-15T03:08:43;1.80;99.90
5258;DHT22;2651;51.594;9.928;2024-01-15T03:09:54;1.80;99.90
5258;DHT22;2651;51.594;9.928;2024-01-15T03:10:56;1.80;1.00
5258;DHT22;2651;51.594;9.928;2024-01-15T03:12:02;1.80;99.90
5258;DHT22;2651;51.594;9.928;2024-01-15T03:13:06;1.90;1.00
5258;DHT22;2651;51.594;9.928;2024-01-15T03:14:11;1.90;87.10
5258;DHT22;2651;51.594;9.928;2024-01-15T03:15:14;1.90;99.90
5258;DHT22;2651;51.594;9.928;2024-01-15T03:16:19;1.90;1.00
5258;DHT22;2651;51.594;9.928;2024-01-15T03:17:21;1.90;99.90
5258;DHT22;2651;51.594;9.928;2024-01-15T03:18:23;1.90;99.90
5258;DHT22;2651;51.594;9.928;2024-01-15T03:19:28;1.90;99.90
5258;DHT22;2651;51.594;9.928;2024-01-15T03:20:32;1.90;44.80
5258;DHT22;2651;51.594;9.928;2024-01-15T03:21:34;1.90;87.90
5258;DHT22;2651;51.594;9.928;2024-01-15T03:22:36;1.90;99.90
5258;DHT22;2651;51.594;9.928;2024-01-15T03:23:37;1.90;99.90
5258;DHT22;2651;51.594;9.928;2024-01-15T03:24:39;1.90;1.00
5258;DHT22;2651;51.594;9.928;2024-01-15T03:25:41;1.90;1.00
5258;DHT22;2651;51.594;9.928;2024-01-15T03:26:43;1.90;1.00
5258;DHT22;2651;51.594;9.928;2024-01-15T03:27:45;1.90;1.00
5258;DHT22;2651;51.594;9.928;2024-01-15T03:28:49;1.90;1.00
5258;DHT22;2651;51.594;9.928;2024-01-15T03:29:51;1.90;1.00
5258;DHT22;2651;51.594;9.928;2024-01-15T03:30:55;1.90;1.00
5258;DHT22;2651;51.594;9.928;2024-01-15T03:32:01;1.90;1.00
5258;DHT22;2651;51.594;9.928;2024-01-15T03:33:05;1.90;1.00
5258;DHT22;2651;51.594;9.928;2024-01-15T03:34:09;1.90;1.00
5258;DHT22;2651;51.594;9.928;2024-01-15T03:35:11;1.90;1.00
5258;DHT22;2651;51.594;9.928;2024-01-15T03:36:13;1.90;1.00
5258;DHT22;2651;51.594;9.928;2024-01-15T03:37:15;1.90;1.00
5258;DHT22;2651;51.594;9.928;2024-01-15T03:38:20;1.90;1.00
5258;DHT22;2651;51.594;9.928;2024-01-15T03:39:24;1.90;99.90
5258;DHT22;2651;51.594;9.928;2024-01-15T03:40:26;1.90;1.00
5258;DHT22;2651;51.594;9.928;2024-01-15T03:41:33;1.90;1.00
5258;DHT22;2651;51.594;9.928;2024-01-15T03:42:42;1.90;1.00
5258;DHT22;2651;51.594;9.928;2024-01-15T03:43:44;1.90;1.00
5258;DHT22;2651;51.594;9.928;2024-01-15T03:44:45;1.90;1.00
5258;DHT22;2651;51.594;9.928;2024-01-15T03:45:53;1.90;1.00
5258;DHT22;2651;51.594;9.928;2024-01-15T03:46:58;1.90;1.00
5258;DHT22;2651;51.594;9.928;2024-01-15T03:48:19;1.90;1.00
5258;DHT22;2651;51.594;9.928;2024-01-15T03:49:21;1.90;1.00
5258;DHT22;2651;51.594;9.928;2024-01-15T03:50:25;1.90;1.00
5258;DHT22;2651;51.594;9.928;2024-01-15T03:51:41;1.90;1.00
5258;DHT22;2651;51.594;9.928;2024-01-15T03:52:48;1.90;1.00
5258;DHT22;2651;51.594;9.928;2024-01-15T03:53:50;1.90;1.00
5258;DHT22;2651;51.594;9.928;2024-01-15T03:54:57;2.00;1.00
5258;DHT22;2651;51.594;9.928;2024-01-15T03:56:08;1.90;1.00
5258;DHT22;2651;51.594;9.928;2024-01-15T03:57:20;1.90;99.90
5258;DHT22;2651;51.594;9.928;2024-01-15T03:58:21;1.90;1.00
5258;DHT22;2651;51.594;9.928;2024-01-15T03:59:26;1.90;1.00
5258;DHT22;2651;51.594;9.928;2024-01-15T04:00:30;2.00;1.00
5258;DHT22;2651;51.594;9.928;2024-01-15T04:01:35;1.90;1.00
5258;DHT22;2651;51.594;9.928;2024-01-15T04:02:36;1.90;1.00
5258;DHT22;2651;51.594;9.928;2024-01-15T04:03:43;2.00;1.00
5258;DHT22;2651;51.594;9.928;2024-01-15T04:04:54;2.00;1.00
5258;DHT22;2651;51.594;9.928;2024-01-15T04:05:56;1.90;1.00
5258;DHT22;2651;51.594;9.928;2024-01-15T04:07:01;2.00;1.00
5258;DHT22;2651;51.594;9.928;2024-01-15T04:08:05;2.00;1.00
5258;DHT22;2651;51.594;9.928;2024-01-15T04:09:12;2.00;1.00
5258;DHT22;2651;51.594;9.928;2024-01-15T04:10:21;2.00;99.90
5258;DHT22;2651;51.594;9.928;2024-01-15T04:11:23;2.00;1.00
5258;DHT22;2651;51.594;9.928;2024-01-15T04:12:25;2.00;99.90
5258;DHT22;2651;51.594;9.928;2024-01-15T04:13:33;2.00;1.00
5258;DHT22;2651;51.594;9.928;2024-01-15T04:14:38;2.00;1.00
5258;DHT22;2651;51.594;9.928;2024-01-15T04:15:47;2.00;1.00
5258;DHT22;2651;51.594;9.928;2024-01-15T04:16:49;2.00;1.00
5258;DHT22;2651;51.594;9.928;2024-01-15T04:17:52;2.00;1.00
5258;DHT22;2651;51.594;9.928;2024-01-15T04:18:59;2.00;1.00
5258;DHT22;2651;51.594;9.928;2024-01-15T04:20:04;2.00;1.00
5258;DHT22;2651;51.594;9.928;2024-01-15T04:21:06;1.90;99.90
5258;DHT22;2651;51.594;9.928;2024-01-15T04:22:09;1.90;99.90
5258;DHT22;2651;51.594;9.928;2024-01-15T04:23:17;1.90;99.90
5258;DHT22;2651;51.594;9.928;2024-01-15T04:24:19;2.00;99.90
5258;DHT22;2651;51.594;9.928;2024-01-15T04:25:20;2.00;99.90
5258;DHT22;2651;51.594;9.928;2024-01-15T04:26:25;2.00;1.00
5258;DHT22;2651;51.594;9.928;2024-01-15T04:27:29;2.00;1.00
5258;DHT22;2651;51.594;9.928;2024-01-15T04:28:31;2.00;99.90
5258;DHT22;2651;51.594;9.928;2024-01-15T04:29:38;2.00;1.00
5258;DHT22;2651;51.594;9.928;2024-01-15T04:30:43;2.00;1.00
5258;DHT22;2651;51.594;9.928;2024-01-15T04:31:54;2.00;65.30
5258;DHT22;2651;51.594;9.928;2024-01-15T04:32:59;2.00;93.80
5258;DHT22;2651;51.594;9.928;2024-01-15T04:34:01;2.00;1.00
5258;DHT22;2651;51.594;9.928;2024-01-15T04:35:03;2.00;1.00
5258;DHT22;2651;51.594;9.928;2024-01-15T04:36:15;2.00;1.00
5258;DHT22;2651;51.594;9.928;2024-01-15T04:37:19;2.00;1.00
5258;DHT22;2651;51.594;9.928;2024-01-15T04:38:21;2.00;1.00
5258;DHT22;2651;51.594;9.928;2024-01-15T04:39:29;2.00;1.00
5258;DHT22;2651;51.594;9.928;2024-01-15T04:40:31;2.00;1.00
5258;DHT22;2651;51.594;9.928;2024-01-15T04:41:34;2.00;1.00
5258;DHT22;2651;51.594;9.928;2024-01-15T04:42:41;2.00;99.90
5258;DHT22;2651;51.594;9.928;2024-01-15T04:43:43;2.00;99.90
5258;DHT22;2651;51.594;9.928;2024-01-15T04:44:58;2.00;1.00
5258;DHT22;2651;51.594;9.928;2024-01-15T04:46:02;2.00;1.00
5258;DHT22;2651;51.594;9.928;2024-01-15T04:47:04;2.00;1.00
5258;DHT22;2651;51.594;9.928;2024-01-15T04:48:06;2.00;1.00
5258;DHT22;2651;51.594;9.928;2024-01-15T04:49:08;2.00;1.00
5258;DHT22;2651;51.594;9.928;2024-01-15T04:50:10;2.00;1.00
5258;DHT22;2651;51.594;9.928;2024-01-15T04:51:12;2.00;1.00
5258;DHT22;2651;51.594;9.928;2024-01-15T04:52:14;2.00;1.00
5258;DHT22;2651;51.594;9.928;2024-01-15T04:53:16;2.00;1.00
5258;DHT22;2651;51.594;9.928;2024-01-15T04:54:18;2.00;1.00
5258;DHT22;2651;51.594;9.928;2024-01-15T04:55:22;2.00;1.00
5258;DHT22;2651;51.594;9.928;2024-01-15T04:56:29;2.00;1.00
5258;DHT22;2651;51.594;9.928;2024-01-15T04:57:40;2.00;99.90
5258;DHT22;2651;51.594;9.928;2024-01-15T04:58:46;2.00;1.00
5258;DHT22;2651;51.594;9.928;2024-01-15T04:59:48;2.00;1.00
5258;DHT22;2651;51.594;9.928;2024-01-15T05:00:54;2.00;1.00
5258;DHT22;2651;51.594;9.928;2024-01-15T05:01:59;2.00;1.00
5258;DHT22;2651;51.594;9.928;2024-01-15T05:03:01;2.00;1.00
5258;DHT22;2651;51.594;9.928;2024-01-15T05:04:19;2.00;1.00
5258;DHT22;2651;51.594;9.928;2024-01-15T05:05:21;2.00;90.90
5258;DHT22;2651;51.594;9.928;2024-01-15T05:06:30;2.00;99.90
5258;DHT22;2651;51.594;9.928;2024-01-15T05:07:32;1.90;99.90
5258;DHT22;2651;51.594;9.928;2024-01-15T05:08:38;1.90;99.90
5258;DHT22;2651;51.594;9.928;2024-01-15T05:09:44;1.90;99.90
5258;DHT22;2651;51.594;9.928;2024-01-15T05:10:48;1.90;99.90
5258;DHT22;2651;51.594;9.928;2024-01-15T05:11:54;1.90;99.90
5258;DHT22;2651;51.594;9.928;2024-01-15T05:12:56;1.90;99.90
5258;DHT22;2651;51.594;9.928;2024-01-15T05:14:00;1.90;99.90
5258;DHT22;2651;51.594;9.928;2024-01-15T05:15:03;1.90;1.00
5258;DHT22;2651;51.594;9.928;2024-01-15T05:16:07;1.90;1.00
5258;DHT22;2651;51.594;9.928;2024-01-15T05:17:11;1.90;99.90
5258;DHT22;2651;51.594;9.928;2024-01-15T05:18:19;1.90;99.90
5258;DHT22;2651;51.594;9.928;2024-01-15T05:19:21;1.90;99.90
5258;DHT22;2651;51.594;9.928;2024-01-15T05:20:23;1.90;99.90
5258;DHT22;2651;51.594;9.928;2024-01-15T05:21:28;1.90;92.70
5258;DHT22;2651;51.594;9.928;2024-01-15T05:22:31;1.90;29.00
5258;DHT22;2651;51.594;9.928;2024-01-15T05:23:38;2.00;65.60
5258;DHT22;2651;51.594;9.928;2024-01-15T05:24:40;2.00;1.00
5258;DHT22;2651;51.594;9.928;2024-01-15T05:25:42;2.00;1.00
5258;DHT22;2651;51.594;9.928;2024-01-15T05:26:45;2.00;99.90
5258;DHT22;2651;51.594;9.928;2024-01-15T05:27:54;1.90;99.90
5258;DHT22;2651;51.594;9.928;2024-01-15T05:28:56;2.00;99.90
5258;DHT22;2651;51.594;9.928;2024-01-15T05:30:04;1.90;99.90
5258;DHT22;2651;51.594;9.928;2024-01-15T05:31:15;1.90;1.00
5258;DHT22;2651;51.594;9.928;2024-01-15T05:32:24;1.90;1.00
5258;DHT22;2651;51.594;9.928;2024-01-15T05:33:26;1.90;1.00
5258;DHT22;2651;51.594;9.928;2024-01-15T05:34:28;1.90;1.00
5258;DHT22;2651;51.594;9.928;2024-01-15T05:35:33;1.90;22.20
5258;DHT22;2651;51.594;9.928;2024-01-15T05:36:37;1.80;27.50
5258;DHT22;2651;51.594;9.928;2024-01-15T05:37:44;1.80;62.00
5258;DHT22;2651;51.594;9.928;2024-01-15T05:38:49;1.80;99.90
5258;DHT22;2651;51.594;9.928;2024-01-15T05:39:51;1.80;99.90
5258;DHT22;2651;51.594;9.928;2024-01-15T05:40:54;1.80;99.90
5258;DHT22;2651;51.594;9.928;2024-01-15T05:41:57;1.80;99.90
5258;DHT22;2651;51.594;9.928;2024-01-15T05:42:59;1.80;99.90
5258;DHT22;2651;51.594;9.928;2024-01-15T05:44:01;1.70;99.90
5258;DHT22;2651;51.594;9.928;2024-01-15T05:45:07;1.70;99.90
5258;DHT22;2651;51.594;9.928;2024-01-15T05:46:11;1.70;99.90
5258;DHT22;2651;51.594;9.928;2024-01-15T05:47:13;1.70;99.90
5258;DHT22;2651;51.594;9.928;2024-01-15T05:48:15;1.70;99.90
5258;DHT22;2651;51.594;9.928;2024-01-15T05:49:17;1.70;99.90
5258;DHT22;2651;51.594;9.928;2024-01-15T05:50:22;1.70;99.90
5258;DHT22;2651;51.594;9.928;2024-01-15T05:51:33;1.70;99.90
5258;DHT22;2651;51.594;9.928;2024-01-15T05:52:34;1.70;99.90
5258;DHT22;2651;51.594;9.928;2024-01-15T05:53:36;1.70;1.00
5258;DHT22;2651;51.594;9.928;2024-01-15T05:54:41;1.70;1.00
5258;DHT22;2651;51.594;9.928;2024-01-15T05:55:45;1.70;1.00
5258;DHT22;2651;51.594;9.928;2024-01-15T05:56:47;1.70;1.00
5258;DHT22;2651;51.594;9.928;2024-01-15T05:58:00;1.70;1.00
5258;DHT22;2651;51.594;9.928;2024-01-15T05:59:02;1.70;1.00
5258;DHT22;2651;51.594;9.928;2024-01-15T06:00:05;1.60;1.00
5258;DHT22;2651;51.594;9.928;2024-01-15T06:01:07;1.70;1.00
5258;DHT22;2651;51.594;9.928;2024-01-15T06:02:08;1.70;1.00
5258;DHT22;2651;51.594;9.928;2024-01-15T06:03:10;1.60;1.00
5258;DHT22;2651;51.594;9.928;2024-01-15T06:04:12;1.60;1.00
5258;DHT22;2651;51.594;9.928;2024-01-15T06:05:14;1.60;1.00
5258;DHT22;2651;51.594;9.928;2024-01-15T06:06:16;1.70;1.00
5258;DHT22;2651;51.594;9.928;2024-01-15T06:07:18;1.70;1.00
5258;DHT22;2651;51.594;9.928;2024-01-15T06:08:25;1.70;99.90
5258;DHT22;2651;51.594;9.928;2024-01-15T06:09:29;1.70;99.90
5258;DHT22;2651;51.594;9.928;2024-01-15T06:10:41;1.80;99.90
5258;DHT22;2651;51.594;9.928;2024-01-15T06:11:52;1.80;99.90
5258;DHT22;2651;51.594;9.928;2024-01-15T06:12:59;1.80;99.90
5258;DHT22;2651;51.594;9.928;2024-01-15T06:14:03;1.80;99.90
5258;DHT22;2651;51.594;9.928;2024-01-15T06:15:11;1.80;99.90
5258;DHT22;2651;51.594;9.928;2024-01-15T06:16:14;1.80;99.90
5258;DHT22;2651;51.594;9.928;2024-01-15T06:17:18;1.80;99.90
5258;DHT22;2651;51.594;9.928;2024-01-15T06:18:23;1.80;99.90
5258;DHT22;2651;51.594;9.928;2024-01-15T06:19:25;1.90;99.90
5258;DHT22;2651;51.594;9.928;2024-01-15T06:20:27;1.90;99.90
5258;DHT22;2651;51.594;9.928;2024-01-15T06:21:31;1.90;99.90
5258;DHT22;2651;51.594;9.928;2024-01-15T06:22:34;1.90;49.50
5258;DHT22;2651;51.594;9.928;2024-01-15T06:23:45;1.90;1.00
5258;DHT22;2651;51.594;9.928;2024-01-15T06:24:47;1.90;1.00
5258;DHT22;2651;51.594;9.928;2024-01-15T06:25:53;2.00;1.00
5258;DHT22;2651;51.594;9.928;2024-01-15T06:26:58;1.90;1.00
5258;DHT22;2651;51.594;9.928;2024-01-15T06:28:00;2.00;1.00
5258;DHT22;2651;51.594;9.928;2024-01-15T06:29:09;2.00;1.00
5258;DHT22;2651;51.594;9.928;2024-01-15T06:30:14;2.00;1.00
5258;DHT22;2651;51.594;9.928;2024-01-15T06:31:21;2.00;1.00
5258;DHT22;2651;51.594;9.928;2024-01-15T06:32:23;2.00;1.00
5258;DHT22;2651;51.594;9.928;2024-01-15T06:33:26;1.90;1.00
5258;DHT22;2651;51.594;9.928;2024-01-15T06:34:31;1.90;1.00
5258;DHT22;2651;51.594;9.928;2024-01-15T06:35:46;2.00;21.40
5258;DHT22;2651;51.594;9.928;2024-01-15T06:37:05;1.90;80.90
5258;DHT22;2651;51.594;9.928;2024-01-15T06:38:19;1.90;99.90
5258;DHT22;2651;51.594;9.928;2024-01-15T06:39:27;1.90;99.90
5258;DHT22;2651;51.594;9.928;2024-01-15T06:40:41;1.90;99.90
5258;DHT22;2651;51.594;9.928;2024-01-15T06:41:50;1.90;99.90
5258;DHT22;2651;51.594;9.928;2024-01-15T06:43:06;1.90;99.90
5258;DHT22;2651;51.594;9.928;2024-01-15T06:44:11;1.90;99.90
5258;DHT22;2651;51.594;9.928;2024-01-15T06:45:20;1.90;99.90
5258;DHT22;2651;51.594;9.928;2024-01-15T06:46:23;1.90;99.90
5258;DHT22;2651;51.594;9.928;2024-01-15T06:47:31;1.80;99.90
5258;DHT22;2651;51.594;9.928;2024-01-15T06:48:34;1.80;99.90
5258;DHT22;2651;51.594;9.928;2024-01-15T06:49:49;1.80;99.90
5258;DHT22;2651;51.594;9.928;2024-01-15T06:50:58;1.80;99.90
5258;DHT22;2651;51.594;9.928;2024-01-15T06:52:06;1.80;99.90
5258;DHT22;2651;51.594;9.928;2024-01-15T06:53:11;1.80;99.90
5258;DHT22;2651;51.594;9.928;2024-01-15T06:54:20;1.80;99.90
5258;DHT22;2651;51.594;9.928;2024-01-15T06:55:22;1.80;99.90
5258;DHT22;2651;51.594;9.928;2024-01-15T06:56:23;1.80;99.90
5258;DHT22;2651;51.594;9.928;2024-01-15T06:57:25;1.80;99.90
5258;DHT22;2651;51.594;9.928;2024-01-15T06:58:27;1.80;99.90
5258;DHT22;2651;51.594;9.928;2024-01-15T06:59:29;1.80;99.90
5258;DHT22;2651;51.594;9.928;2024-01-15T07:00:36;1.80;99.90
5258;DHT22;2651;51.594;9.928;2024-01-15T07:01:43;1.80;1.00
5258;DHT22;2651;51.594;9.928;2024-01-15T07:02:45;1.80;1.00
5258;DHT22;2651;51.594;9.928;2024-01-15T07:03:47;1.70;1.00
5258;DHT22;2651;51.594;9.928;2024-01-15T07:04:49;1.70;1.00
5258;DHT22;2651;51.594;9.928;2024-01-15T07:05:51;1.70;1.00
5258;DHT22;2651;51.594;9.928;2024-01-15T07:06:53;1.70;1.00
5258;DHT22;2651;51.594;9.928;2024-01-15T07:07:55;1.70;1.00
5258;DHT22;2651;51.594;9.928;2024-01-15T07:08:57;1.70;1.00
5258;DHT22;2651;51.594;9.928;2024-01-15T07:09:59;1.70;1.00
5258;DHT22;2651;51.594;9.928;2024-01-15T07:11:03;1.70;1.00
5258;DHT22;2651;51.594;9.928;2024-01-15T07:12:05;1.70;1.00
5258;DHT22;2651;51.594;9.928;2024-01-15T07:13:07;1.70;1.00
5258;DHT22;2651;51.594;9.928;2024-01-15T07:14:09;1.70;1.00